createdAt,value
2022-12-07T00:01:39.876Z,58.30
2022-12-07T00:04:11.565Z,58.33
2022-12-07T00:06:42.173Z,58.25
2022-12-07T00:09:13.843Z,58.19
2022-12-07T00:11:41.272Z,58.31
2022-12-07T00:14:11.994Z,58.23
2022-12-07T00:16:39.322Z,58.19
2022-12-07T00:19:06.580Z,58.01
2022-12-07T00:21:36.511Z,58.13
2022-12-07T00:24:05.882Z,58.13
2022-12-07T00:26:38.416Z,58.15
2022-12-07T00:29:21.845Z,58.26
2022-12-07T00:31:49.303Z,58.27
2022-12-07T00:34:22.152Z,58.36
2022-12-07T00:36:50.154Z,58.33
2022-12-07T00:39:17.649Z,58.37
2022-12-07T00:41:45.056Z,58.27
2022-12-07T00:44:13.093Z,58.21
2022-12-07T00:46:40.562Z,58.12
2022-12-07T00:49:07.986Z,58.16
2022-12-07T00:51:35.655Z,58.31
2022-12-07T00:54:03.185Z,58.28
2022-12-07T00:56:31.136Z,58.23
2022-12-07T00:59:01.155Z,58.28
2022-12-07T01:01:32.094Z,58.27
2022-12-07T01:03:59.620Z,58.27
2022-12-07T01:06:27.258Z,58.25
2022-12-07T01:08:55.339Z,58.14
2022-12-07T01:11:29.805Z,58.28
2022-12-07T01:13:58.928Z,58.39
2022-12-07T01:16:27.840Z,58.27
2022-12-07T01:18:56.429Z,58.31
2022-12-07T01:21:27.334Z,58.31
2022-12-07T01:23:55.719Z,58.26
2022-12-07T01:26:25.344Z,58.17
2022-12-07T01:28:56.148Z,58.29
2022-12-07T01:31:25.414Z,58.34
2022-12-07T01:33:56.576Z,58.02
2022-12-07T01:36:28.211Z,58.12
2022-12-07T01:39:02.293Z,58.22
2022-12-07T01:41:34.692Z,58.15
2022-12-07T01:44:12.956Z,58.27
2022-12-07T01:46:42.856Z,58.15
2022-12-07T01:49:15.815Z,58.14
2022-12-07T01:51:44.845Z,58.31
2022-12-07T01:54:14.623Z,58.23
2022-12-07T01:56:47.216Z,58.28
2022-12-07T01:59:15.179Z,58.37
2022-12-07T02:01:42.419Z,58.30
2022-12-07T02:04:11.348Z,58.09
2022-12-07T02:06:39.363Z,58.28
2022-12-07T02:09:07.216Z,58.10
2022-12-07T02:11:34.834Z,58.19
2022-12-07T02:14:02.353Z,58.24
2022-12-07T02:17:01.718Z,58.12
2022-12-07T02:19:43.823Z,58.24
2022-12-07T02:22:14.017Z,58.15
2022-12-07T02:24:53.764Z,58.21
2022-12-07T02:27:44.859Z,58.20
2022-12-07T02:30:18.481Z,58.11
2022-12-07T02:33:16.377Z,58.10
2022-12-07T02:36:07.088Z,57.99
2022-12-07T02:38:49.469Z,58.11
2022-12-07T02:41:29.252Z,58.14
2022-12-07T02:44:00.966Z,58.27
2022-12-07T02:46:41.577Z,58.06
2022-12-07T02:49:10.065Z,58.04
2022-12-07T02:51:44.278Z,58.21
2022-12-07T02:54:15.187Z,58.22
2022-12-07T02:57:00.793Z,58.18
2022-12-07T02:59:49.150Z,58.19
2022-12-07T03:02:27.146Z,58.26
2022-12-07T03:05:19.247Z,58.25
2022-12-07T03:08:05.876Z,58.36
2022-12-07T03:11:00.440Z,58.30
2022-12-07T03:13:45.580Z,58.26
2022-12-07T03:16:26.942Z,58.30
2022-12-07T03:19:18.741Z,58.30
2022-12-07T03:21:56.859Z,58.27
2022-12-07T03:24:31.550Z,58.40
2022-12-07T03:27:08.206Z,58.37
2022-12-07T03:29:41.960Z,58.31
2022-12-07T03:32:23.092Z,58.56
2022-12-07T03:35:07.561Z,58.47
2022-12-07T03:37:55.862Z,58.54
2022-12-07T03:40:35.685Z,58.57
2022-12-07T03:43:04.831Z,58.67
2022-12-07T03:45:44.524Z,58.53
2022-12-07T03:48:29.225Z,58.62
2022-12-07T03:51:07.253Z,58.66
2022-12-07T03:53:48.058Z,58.72
2022-12-07T03:56:16.596Z,58.63
2022-12-07T03:58:44.681Z,58.67
2022-12-07T04:01:12.074Z,58.82
2022-12-07T04:03:40.540Z,58.80
2022-12-07T04:06:08.048Z,58.74
2022-12-07T04:08:35.283Z,58.73
2022-12-07T04:11:02.854Z,58.74
2022-12-07T04:13:30.518Z,58.79
2022-12-07T04:15:57.907Z,58.75
2022-12-07T04:18:25.276Z,58.70
2022-12-07T04:20:52.862Z,58.85
2022-12-07T04:23:20.171Z,58.84
2022-12-07T04:25:49.886Z,58.91
2022-12-07T04:28:17.289Z,58.83
2022-12-07T04:30:44.933Z,58.85
2022-12-07T04:33:12.471Z,58.95
2022-12-07T04:35:40.036Z,58.89
2022-12-07T04:38:07.623Z,58.93
2022-12-07T04:40:34.842Z,58.99
2022-12-07T04:43:02.026Z,58.99
2022-12-07T04:45:29.361Z,58.98
2022-12-07T04:47:58.048Z,58.87
2022-12-07T04:50:25.321Z,58.96
2022-12-07T04:52:52.692Z,58.93
2022-12-07T04:55:20.099Z,59.07
2022-12-07T04:57:47.500Z,59.04
2022-12-07T05:00:14.779Z,59.09
2022-12-07T05:02:42.216Z,58.97
2022-12-07T05:05:09.641Z,59.10
2022-12-07T05:07:36.951Z,59.09
2022-12-07T05:10:04.747Z,59.16
2022-12-07T05:12:32.154Z,59.14
2022-12-07T05:14:59.429Z,59.19
2022-12-07T05:17:26.809Z,59.11
2022-12-07T05:19:54.107Z,59.18
2022-12-07T05:22:22.395Z,59.27
2022-12-07T05:24:49.605Z,59.12
2022-12-07T05:27:16.921Z,59.20
2022-12-07T05:29:44.050Z,59.11
2022-12-07T05:32:11.344Z,59.19
2022-12-07T05:34:38.681Z,59.19
2022-12-07T05:37:05.915Z,59.21
2022-12-07T05:39:33.039Z,59.23
2022-12-07T05:42:15.347Z,59.14
2022-12-07T05:44:47.303Z,59.20
2022-12-07T05:47:16.117Z,59.17
2022-12-07T05:49:43.350Z,59.33
2022-12-07T05:52:10.931Z,59.41
2022-12-07T05:54:38.302Z,59.22
2022-12-07T05:57:05.694Z,59.28
2022-12-07T05:59:32.956Z,59.37
2022-12-07T06:02:13.995Z,59.18
2022-12-07T06:04:44.580Z,59.23
2022-12-07T06:07:14.124Z,59.26
2022-12-07T06:09:41.666Z,59.20
2022-12-07T06:12:32.499Z,59.26
2022-12-07T06:14:59.884Z,59.43
2022-12-07T06:17:27.170Z,59.30
2022-12-07T06:19:54.494Z,59.36
2022-12-07T06:22:22.587Z,59.38
2022-12-07T06:24:50.896Z,59.33
2022-12-07T06:27:18.734Z,59.40
2022-12-07T06:29:46.300Z,59.37
2022-12-07T06:32:13.644Z,59.40
2022-12-07T06:34:41.851Z,59.44
2022-12-07T06:37:09.215Z,59.44
2022-12-07T06:39:36.741Z,59.48
2022-12-07T06:42:04.054Z,59.42
2022-12-07T06:44:31.429Z,59.48
2022-12-07T06:47:24.894Z,59.66
2022-12-07T06:49:46.130Z,59.43
2022-12-07T06:52:13.779Z,59.59
2022-12-07T06:54:41.717Z,59.43
2022-12-07T06:57:12.939Z,59.32
2022-12-07T06:59:40.397Z,59.13
2022-12-07T07:02:07.782Z,58.94
2022-12-07T07:04:34.985Z,58.80
2022-12-07T07:07:02.178Z,58.60
2022-12-07T07:09:29.488Z,58.45
2022-12-07T07:11:57.026Z,58.54
2022-12-07T07:14:24.645Z,58.42
2022-12-07T07:16:52.699Z,58.31
2022-12-07T07:19:19.995Z,58.24
2022-12-07T07:21:47.881Z,58.23
2022-12-07T07:24:15.409Z,58.16
2022-12-07T07:26:43.148Z,58.06
2022-12-07T07:29:11.720Z,58.02
2022-12-07T07:31:39.063Z,57.95
2022-12-07T07:34:06.279Z,57.95
2022-12-07T07:36:34.069Z,57.92
2022-12-07T07:39:01.414Z,57.75
2022-12-07T07:41:28.760Z,57.85
2022-12-07T07:43:55.962Z,57.83
2022-12-07T07:46:23.305Z,57.75
2022-12-07T07:48:50.814Z,57.61
2022-12-07T07:51:18.048Z,57.59
2022-12-07T07:53:45.276Z,57.51
2022-12-07T07:56:12.530Z,57.53
2022-12-07T07:58:40.532Z,57.50
2022-12-07T08:01:08.692Z,57.42
2022-12-07T08:03:36.030Z,57.44
2022-12-07T08:06:04.813Z,57.36
2022-12-07T08:08:32.313Z,57.45
2022-12-07T08:11:02.419Z,57.30
2022-12-07T08:13:31.777Z,57.38
2022-12-07T08:15:59.536Z,57.26
2022-12-07T08:18:26.717Z,57.20
2022-12-07T08:21:00.730Z,57.35
2022-12-07T08:23:34.884Z,57.16
2022-12-07T08:26:08.672Z,57.13
2022-12-07T08:28:36.476Z,56.90
2022-12-07T08:31:05.684Z,57.13
2022-12-07T08:33:33.403Z,57.07
2022-12-07T08:36:09.373Z,56.97
2022-12-07T08:38:38.204Z,57.00
2022-12-07T08:41:05.683Z,56.85
2022-12-07T08:43:32.957Z,56.96
2022-12-07T08:46:20.710Z,57.03
2022-12-07T08:48:52.725Z,56.80
2022-12-07T08:51:22.849Z,56.75
2022-12-07T08:53:51.440Z,56.83
2022-12-07T08:56:18.939Z,56.80
2022-12-07T08:58:48.721Z,56.82
2022-12-07T09:01:16.375Z,56.86
2022-12-07T09:03:43.743Z,56.92
2022-12-07T09:06:27.083Z,56.93
2022-12-07T09:09:00.240Z,56.84
2022-12-07T09:11:29.001Z,56.80
2022-12-07T09:13:57.116Z,56.98
2022-12-07T09:16:24.365Z,57.02
2022-12-07T09:18:51.643Z,57.11
2022-12-07T09:21:18.747Z,57.17
2022-12-07T09:23:45.986Z,57.17
2022-12-07T09:26:13.284Z,57.28
2022-12-07T09:28:40.591Z,57.08
2022-12-07T09:31:24.664Z,57.09
2022-12-07T09:34:01.520Z,57.08
2022-12-07T09:36:29.711Z,57.06
2022-12-07T09:38:57.066Z,57.08
2022-12-07T09:41:26.711Z,57.07
2022-12-07T09:43:58.652Z,57.14
2022-12-07T09:46:25.939Z,56.97
2022-12-07T09:48:53.241Z,57.07
2022-12-07T09:51:26.007Z,57.05
2022-12-07T09:53:57.354Z,57.09
2022-12-07T09:56:25.483Z,57.14
2022-12-07T09:58:58.642Z,57.07
2022-12-07T10:01:26.147Z,57.03
2022-12-07T10:04:07.776Z,57.01
2022-12-07T10:06:34.913Z,57.11
2022-12-07T10:09:02.177Z,57.12
2022-12-07T10:11:29.262Z,57.06
2022-12-07T10:13:56.508Z,57.09
2022-12-07T10:16:29.602Z,57.11
2022-12-07T10:18:57.041Z,57.10
2022-12-07T10:21:26.639Z,57.32
2022-12-07T10:24:11.968Z,57.31
2022-12-07T10:26:48.051Z,57.46
2022-12-07T10:29:37.483Z,57.40
2022-12-07T10:32:06.572Z,57.64
2022-12-07T10:34:39.548Z,57.53
2022-12-07T10:37:18.579Z,57.60
2022-12-07T10:39:53.355Z,57.71
2022-12-07T10:42:21.526Z,57.68
2022-12-07T10:44:50.117Z,57.80
2022-12-07T10:47:43.836Z,57.76
2022-12-07T10:50:32.736Z,57.76
2022-12-07T10:53:08.817Z,57.78
2022-12-07T10:56:07.021Z,57.85
2022-12-07T10:58:53.821Z,57.82
2022-12-07T11:01:50.239Z,57.90
2022-12-07T11:04:44.843Z,57.79
2022-12-07T11:07:23.443Z,57.66
2022-12-07T11:10:10.670Z,57.76
2022-12-07T11:12:51.607Z,57.72
2022-12-07T11:15:31.118Z,57.66
2022-12-07T11:17:58.080Z,57.63
2022-12-07T11:20:29.284Z,57.60
2022-12-07T11:23:10.384Z,57.64
2022-12-07T11:25:44.029Z,57.58
2022-12-07T11:28:31.263Z,57.57
2022-12-07T11:31:22.184Z,57.63
2022-12-07T11:34:00.621Z,57.55
2022-12-07T11:36:36.880Z,57.46
2022-12-07T11:39:34.572Z,57.59
2022-12-07T11:42:21.920Z,57.57
2022-12-07T11:44:58.342Z,57.45
2022-12-07T11:47:53.654Z,57.58
2022-12-07T11:50:34.549Z,57.39
2022-12-07T11:53:10.452Z,57.35
2022-12-07T11:55:47.241Z,57.29
2022-12-07T11:58:30.193Z,57.25
2022-12-07T12:01:12.921Z,57.30
2022-12-07T12:03:53.542Z,57.33
2022-12-07T12:06:23.173Z,57.24
2022-12-07T12:11:51.729Z,57.20
2022-12-07T12:14:44.925Z,57.07
2022-12-07T12:17:24.681Z,56.87
2022-12-07T12:20:22.769Z,57.17
2022-12-07T12:23:24.346Z,57.03
2022-12-07T12:25:56.079Z,56.88
2022-12-07T12:28:33.601Z,57.10
2022-12-07T12:31:12.966Z,56.96
2022-12-07T12:33:45.201Z,56.89
2022-12-07T12:36:24.888Z,56.86
2022-12-07T12:39:11.815Z,56.84
2022-12-07T12:41:39.757Z,56.88
2022-12-07T12:44:15.858Z,56.76
2022-12-07T12:46:56.207Z,56.58
2022-12-07T12:49:23.285Z,56.80
2022-12-07T12:51:52.386Z,56.69
2022-12-07T12:54:19.447Z,56.63
2022-12-07T12:57:27.714Z,56.76
2022-12-07T12:59:54.900Z,56.72
2022-12-07T13:02:40.120Z,56.59
2022-12-07T13:05:08.437Z,56.65
2022-12-07T13:07:54.237Z,56.48
2022-12-07T13:10:45.841Z,56.48
2022-12-07T13:13:15.866Z,56.57
2022-12-07T13:15:46.184Z,56.29
2022-12-07T13:18:28.586Z,56.31
2022-12-07T13:21:07.871Z,56.31
2022-12-07T13:23:47.572Z,56.42
2022-12-07T13:26:35.643Z,56.30
2022-12-07T13:29:16.161Z,56.34
2022-12-07T13:31:52.682Z,56.16
2022-12-07T13:34:39.756Z,56.30
2022-12-07T13:37:21.889Z,56.25
2022-12-07T13:39:54.033Z,56.12
2022-12-07T13:42:37.579Z,56.15
2022-12-07T13:45:23.575Z,56.08
2022-12-07T13:47:55.520Z,56.23
2022-12-07T13:50:31.121Z,56.10
2022-12-07T13:53:02.128Z,56.23
2022-12-07T13:55:30.964Z,56.19
2022-12-07T13:57:58.562Z,56.12
2022-12-07T14:00:28.948Z,56.05
2022-12-07T14:03:25.259Z,56.18
2022-12-07T14:06:14.466Z,56.07
2022-12-07T14:08:41.824Z,56.03
2022-12-07T14:11:20.281Z,55.95
2022-12-07T14:13:50.154Z,56.01
2022-12-07T14:17:03.455Z,55.94
2022-12-07T14:20:02.532Z,55.88
2022-12-07T14:22:32.759Z,55.91
2022-12-07T14:25:17.642Z,56.02
2022-12-07T14:28:01.925Z,56.15
2022-12-07T14:30:35.313Z,56.28
2022-12-07T14:33:05.928Z,56.44
2022-12-07T14:35:36.013Z,56.34
2022-12-07T14:38:03.321Z,56.42
2022-12-07T14:40:31.279Z,56.69
2022-12-07T14:43:30.547Z,56.65
2022-12-07T14:45:58.019Z,56.79
2022-12-07T14:54:01.380Z,56.88
2022-12-07T14:56:31.230Z,56.82
2022-12-07T14:58:59.492Z,57.05
2022-12-07T15:01:26.662Z,56.99
2022-12-07T15:03:53.754Z,57.09
2022-12-07T15:06:21.014Z,57.14
2022-12-07T15:08:48.124Z,56.93
2022-12-07T15:11:16.888Z,57.17
2022-12-07T15:14:02.745Z,56.93
2022-12-07T15:16:40.679Z,57.02
2022-12-07T15:19:33.378Z,56.99
2022-12-07T15:22:01.469Z,57.17
2022-12-07T15:24:29.302Z,57.11
2022-12-07T15:26:56.351Z,57.05
2022-12-07T15:29:24.221Z,57.06
2022-12-07T15:31:57.519Z,56.91
2022-12-07T15:34:36.418Z,57.02
2022-12-07T15:37:10.494Z,56.89
2022-12-07T15:39:39.752Z,57.00
2022-12-07T15:42:06.792Z,56.89
2022-12-07T15:44:52.573Z,56.84
2022-12-07T15:49:43.005Z,56.77
2022-12-07T15:52:10.334Z,56.67
2022-12-07T15:54:37.614Z,56.61
2022-12-07T15:57:04.663Z,56.55
2022-12-07T15:59:31.981Z,56.43
2022-12-07T16:01:59.444Z,56.36
2022-12-07T16:04:29.791Z,56.43
2022-12-07T16:06:57.698Z,56.57
2022-12-07T16:09:25.127Z,56.42
2022-12-07T16:11:53.326Z,56.57
2022-12-07T16:14:21.206Z,56.47
2022-12-07T16:16:49.344Z,56.51
2022-12-07T16:19:16.988Z,56.44
2022-12-07T16:21:44.349Z,56.30
2022-12-07T16:24:11.617Z,56.43
2022-12-07T16:26:38.634Z,56.38
2022-12-07T16:29:05.793Z,56.34
2022-12-07T16:31:33.017Z,56.30
2022-12-07T16:34:00.535Z,56.34
2022-12-07T16:39:16.123Z,56.21
2022-12-07T16:41:43.273Z,56.16
2022-12-07T16:44:12.141Z,56.22
2022-12-07T16:46:39.846Z,56.30
2022-12-07T16:49:06.862Z,56.28
2022-12-07T16:51:36.776Z,56.27
2022-12-07T16:54:03.815Z,56.24
2022-12-07T16:56:30.878Z,56.23
2022-12-07T16:59:01.187Z,56.25
2022-12-07T17:01:29.802Z,56.18
2022-12-07T17:03:58.144Z,56.11
2022-12-07T17:06:28.551Z,56.19
2022-12-07T17:08:57.271Z,56.19
2022-12-07T17:11:27.102Z,56.08
2022-12-07T17:14:12.585Z,55.94
2022-12-07T17:16:40.450Z,56.05
2022-12-07T17:19:14.569Z,55.86
2022-12-07T17:21:42.753Z,55.90
2022-12-07T17:24:12.350Z,55.92
2022-12-07T17:26:40.034Z,55.94
2022-12-07T17:29:09.807Z,56.13
2022-12-07T17:31:37.460Z,56.05
2022-12-07T17:34:05.246Z,56.02
2022-12-07T17:36:33.135Z,56.02
2022-12-07T17:39:00.276Z,56.00
2022-12-07T17:41:47.762Z,56.14
2022-12-07T17:44:19.276Z,56.24
2022-12-07T17:46:49.314Z,56.08
2022-12-07T17:49:17.047Z,56.22
2022-12-07T17:52:02.527Z,56.06
2022-12-07T17:54:29.724Z,56.18
2022-12-07T17:56:57.063Z,56.08
2022-12-07T17:59:24.950Z,56.11
2022-12-07T18:01:52.485Z,56.16
2022-12-07T18:04:19.881Z,56.07
2022-12-07T18:06:51.691Z,56.14
2022-12-07T18:09:19.892Z,56.27
2022-12-07T18:11:47.012Z,56.14
2022-12-07T18:14:14.278Z,56.15
2022-12-07T18:16:41.284Z,56.13
2022-12-07T18:19:09.494Z,56.12
2022-12-07T18:21:36.704Z,56.04
2022-12-07T18:24:04.767Z,56.05
2022-12-07T18:26:34.094Z,56.27
2022-12-07T18:29:01.582Z,56.36
2022-12-07T18:31:29.712Z,56.21
2022-12-07T18:34:00.601Z,56.13
2022-12-07T18:36:27.548Z,56.34
2022-12-07T18:38:55.000Z,56.36
2022-12-07T18:41:22.012Z,56.37
2022-12-07T18:43:49.014Z,56.26
2022-12-07T18:46:18.261Z,56.31
2022-12-07T18:48:45.851Z,56.30
2022-12-07T18:51:15.216Z,56.30
2022-12-07T18:53:43.292Z,56.31
2022-12-07T18:56:19.878Z,56.29
2022-12-07T18:59:19.442Z,56.44
2022-12-07T19:01:53.637Z,56.45
2022-12-07T19:04:21.110Z,56.36
2022-12-07T19:06:50.122Z,56.61
2022-12-07T19:09:18.666Z,56.43
2022-12-07T19:11:52.250Z,56.49
2022-12-07T19:14:32.123Z,56.51
2022-12-07T19:17:02.941Z,56.38
2022-12-07T19:19:32.835Z,56.48
2022-12-07T19:22:00.255Z,56.53
2022-12-07T19:24:28.343Z,56.56
2022-12-07T19:26:55.608Z,56.68
2022-12-07T19:29:22.949Z,56.66
2022-12-07T19:31:50.313Z,56.79
2022-12-07T19:34:18.376Z,56.79
2022-12-07T19:36:46.856Z,56.79
2022-12-07T19:39:15.777Z,56.92
2022-12-07T19:41:46.881Z,56.84
2022-12-07T19:44:19.370Z,56.83
2022-12-07T19:46:53.268Z,56.96
2022-12-07T19:49:22.350Z,57.14
2022-12-07T19:51:51.878Z,57.49
2022-12-07T19:54:22.172Z,57.89
2022-12-07T19:56:50.929Z,57.92
2022-12-07T19:59:20.085Z,58.00
2022-12-07T20:01:47.764Z,58.04
2022-12-07T20:04:17.858Z,58.10
2022-12-07T20:06:44.919Z,58.23
2022-12-07T20:09:12.541Z,58.20
2022-12-07T20:11:58.466Z,58.14
2022-12-07T20:14:26.839Z,58.15
2022-12-07T20:16:54.445Z,57.98
2022-12-07T20:19:22.364Z,58.08
2022-12-07T20:21:50.707Z,58.00
2022-12-07T20:24:23.060Z,57.76
2022-12-07T20:26:51.870Z,57.74
2022-12-07T20:29:22.556Z,57.57
2022-12-07T20:31:50.507Z,57.32
2022-12-07T20:34:17.914Z,57.44
2022-12-07T20:36:45.107Z,57.27
2022-12-07T20:39:12.678Z,57.42
2022-12-07T20:41:58.775Z,57.40
2022-12-07T20:44:26.407Z,57.13
2022-12-07T20:46:53.399Z,56.97
2022-12-07T20:49:20.461Z,56.99
2022-12-07T20:51:47.883Z,57.11
2022-12-07T20:54:15.493Z,56.87
2022-12-07T20:56:42.569Z,56.77
2022-12-07T20:59:13.227Z,56.84
2022-12-07T21:01:40.513Z,56.71
2022-12-07T21:04:07.539Z,56.77
2022-12-07T21:06:34.822Z,56.76
2022-12-07T21:09:02.378Z,56.62
2022-12-07T21:11:31.407Z,56.59
2022-12-07T21:13:58.995Z,56.66
2022-12-07T21:16:31.622Z,56.49
2022-12-07T21:19:02.978Z,56.37
2022-12-07T21:21:31.930Z,56.56
2022-12-07T21:24:02.566Z,56.53
2022-12-07T21:26:34.078Z,56.51
2022-12-07T21:29:02.189Z,56.60
2022-12-07T21:31:29.694Z,56.39
2022-12-07T21:33:56.757Z,56.46
2022-12-07T21:36:26.600Z,56.51
2022-12-07T21:38:54.238Z,56.38
2022-12-07T21:41:24.740Z,56.54
2022-12-07T21:43:52.688Z,56.48
2022-12-07T21:46:21.517Z,56.28
2022-12-07T21:48:57.300Z,56.31
2022-12-07T21:51:27.641Z,56.47
2022-12-07T21:53:56.690Z,56.43
2022-12-07T21:56:27.040Z,56.32
2022-12-07T21:58:55.726Z,56.28
2022-12-07T22:01:28.654Z,56.29
2022-12-07T22:03:56.271Z,56.47
2022-12-07T22:06:25.452Z,56.39
2022-12-07T22:08:54.480Z,56.54
2022-12-07T22:11:22.120Z,56.54
2022-12-07T22:14:10.576Z,56.46
2022-12-07T22:16:39.468Z,56.43
2022-12-07T22:19:07.642Z,56.52
2022-12-07T22:21:35.150Z,56.53
2022-12-07T22:24:03.067Z,56.46
2022-12-07T22:26:30.067Z,56.46
2022-12-07T22:28:57.105Z,56.44
2022-12-07T22:31:24.929Z,56.50
2022-12-07T22:33:52.790Z,56.44
2022-12-07T22:36:20.348Z,56.49
2022-12-07T22:38:47.913Z,56.39
2022-12-07T22:41:27.863Z,56.46
2022-12-07T22:43:55.762Z,56.41
2022-12-07T22:46:24.005Z,56.60
2022-12-07T22:48:51.718Z,56.54
2022-12-07T22:51:30.259Z,56.51
2022-12-07T22:54:01.420Z,56.58
2022-12-07T22:56:30.622Z,56.58
2022-12-07T22:58:57.785Z,56.46
2022-12-07T23:01:24.993Z,56.53
2022-12-07T23:03:52.854Z,56.51
2022-12-07T23:06:19.823Z,56.51
2022-12-07T23:08:46.914Z,56.67
2022-12-07T23:11:38.761Z,56.48
2022-12-07T23:14:12.471Z,56.49
2022-12-07T23:16:39.748Z,56.53
2022-12-07T23:19:07.372Z,56.35
2022-12-07T23:21:34.758Z,56.43
2022-12-07T23:24:01.852Z,56.44
2022-12-07T23:26:29.407Z,56.34
2022-12-07T23:28:58.523Z,56.26
2022-12-07T23:31:26.106Z,56.17
2022-12-07T23:33:53.314Z,56.25
2022-12-07T23:36:23.659Z,56.25
2022-12-07T23:38:53.562Z,56.24
2022-12-07T23:41:23.543Z,56.29
2022-12-07T23:43:50.819Z,56.47
2022-12-07T23:46:20.715Z,56.28
2022-12-07T23:48:49.553Z,56.36
2022-12-07T23:51:16.938Z,56.46
2022-12-07T23:53:46.528Z,56.47
2022-12-07T23:56:16.307Z,56.45
2022-12-07T23:58:43.661Z,56.43
